ěÝzenÝ letovÚho provozu ╚eskÚ republiky
Letiste: LKPR Aktualizace: 28.03.2023 17:20:40  UTC
 METAR LKPR 28.03. 17:00 ...
METAR LKPR 281700Z 30006KT CAVOK 04/M05 Q1023 NOSIG=
 TAF LKPR 28.03. 17:00 ...
TAF LKPR 281700Z 2818/3000 32014KT CAVOK      BECMG 2820/2822 21006KT      BECMG 2906/2908 9999 BKN030      PROB30 TEMPO 2908/2912 7000 -SNRA BKN014=